Airfield :
LOGIN :

Register | Disclaimer

   EN    FR    IT 

 










Legend :    VFR   Marginal VFR   IFR   Intensive IFR   Very Intensive IFR
Visi :
Ceiling :
>= 8 km
>= 3000ft
5 to 8 km
1000 to 3000 ft
1500m to 5 km
500 to 1000 ft
800 to 1500m
200 to 500 ft
< 800m
< 200 ft
Symbols :   Thunderstorms  Fog  Heavy snow  Heavy precipitations  Wind > 20 kt
SIGMETs :     Misc.  Thunderstorms  Icing  Turbulence  Mountain Waves  Volcanic Ashes






- Airport Elevation : 162 ft
- IATA code : BOD


LFBD - Bordeaux / Merignac

CURRENT METAR :
  • 131030Z AUTO 25010KT 2700 RA BR BKN008/// BKN022/// BKN035/// ///TCU 20/19 Q1015 TEMPO 24015G25KT BKN008 OVC015 SCT050CB BECMG 9999 NSW

EXPIRED METARs :
  • 131000Z AUTO 24010KT 6000 2400 -RA SCT008/// SCT020/// BKN045/// ///TCU 20/19 Q1015 TEMPO 24015G25KT 3000 RA BKN008 OVC015 SCT050CB
  • 130930Z AUTO 22009KT 9999 2000 -RA BKN008/// BKN013/// BKN031/// ///TCU 20/19 Q1015 TEMPO 24015G25KT 3000 RA BKN008 OVC015 SCT050CB
  • 130900Z AUTO 23010KT 7000 -RA BKN007/// BKN022/// OVC082/// ///TCU 20/19 Q1015 TEMPO 24015G25KT 3000 RA BKN008 OVC015 SCT050CB
  • 130830Z AUTO 23010KT 9999 FEW013/// BKN052/// BKN070/// ///CB 20/19 Q1014 TEMPO 24015G25KT 3000 RA BKN008 OVC015 SCT050CB
  • 130800Z AUTO 22011KT 9999 -RA FEW008/// BKN050/// BKN060/// ///TCU 19/18 Q1014 TEMPO 24015G25KT 3000 RA BKN008 OVC015 SCT050CB

TAF TAF LFBD
Valid from the 13 at 06:00 until the 14 at 12:00 UTC


130500Z 1306/1412 22015KT 9999 SCT010 BKN015 BKN070 TX25/1412Z TN17/1404Z
TEMPO 1306/1312 24015G25KT 3000 RA BKN008 OVC015 SCT050CB
BECMG 1313/1315 BKN030
BECMG 1323/1401 VRB02KT
BECMG 1410/1412 CAVOK
ATIS : +33 5 57 92 81 04



MET'MAP, your aeronautical weather chart ! - Copyright ORBIFLY December 2007 - Disclaimer

ORBIFLY MET'MAP TEAM :

Programming & Development : Alexandra Zaïnal
Concept & original design : Baudouin d'Aumeries
Assistance for programming : Marc-Olivier Méhu
Technical & hardware support : Manuel Goepfert

Contact : metmap@orbifly.com




SOURCES & CREDITS :

   NOAA